sensor_id;sensor_type;location;lat;lon;timestamp;temperature;humidity
66190;DHT22;52992;52.084;5.412;2024-01-30T00:00:34;11.90;66.10
66190;DHT22;52992;52.084;5.412;2024-01-30T00:03:04;11.90;66.00
66190;DHT22;52992;52.084;5.412;2024-01-30T00:05:32;11.90;66.10
66190;DHT22;52992;52.084;5.412;2024-01-30T00:07:59;11.80;66.00
66190;DHT22;52992;52.084;5.412;2024-01-30T00:10:26;11.80;66.00
66190;DHT22;52992;52.084;5.412;2024-01-30T00:12:53;11.80;66.10
66190;DHT22;52992;52.084;5.412;2024-01-30T00:15:20;11.80;66.20
66190;DHT22;52992;52.084;5.412;2024-01-30T00:17:47;11.70;66.30
66190;DHT22;52992;52.084;5.412;2024-01-30T00:20:14;11.70;66.40
66190;DHT22;52992;52.084;5.412;2024-01-30T00:22:41;11.70;66.50
66190;DHT22;52992;52.084;5.412;2024-01-30T00:25:08;11.70;66.50
66190;DHT22;52992;52.084;5.412;2024-01-30T00:27:35;11.70;66.30
66190;DHT22;52992;52.084;5.412;2024-01-30T00:30:02;11.70;66.40
66190;DHT22;52992;52.084;5.412;2024-01-30T00:32:29;11.70;66.50
66190;DHT22;52992;52.084;5.412;2024-01-30T00:34:55;11.70;66.50
66190;DHT22;52992;52.084;5.412;2024-01-30T00:37:23;11.60;66.30
66190;DHT22;52992;52.084;5.412;2024-01-30T00:39:50;11.70;66.40
66190;DHT22;52992;52.084;5.412;2024-01-30T00:42:17;11.60;66.30
66190;DHT22;52992;52.084;5.412;2024-01-30T00:44:44;11.60;66.20
66190;DHT22;52992;52.084;5.412;2024-01-30T00:47:11;11.60;66.30
66190;DHT22;52992;52.084;5.412;2024-01-30T00:49:38;11.60;66.40
66190;DHT22;52992;52.084;5.412;2024-01-30T00:52:05;11.60;66.50
66190;DHT22;52992;52.084;5.412;2024-01-30T00:54:32;11.50;66.70
66190;DHT22;52992;52.084;5.412;2024-01-30T00:56:59;11.50;66.60
66190;DHT22;52992;52.084;5.412;2024-01-30T00:59:26;11.60;66.50
66190;DHT22;52992;52.084;5.412;2024-01-30T01:01:52;11.60;66.60
66190;DHT22;52992;52.084;5.412;2024-01-30T01:04:20;11.50;66.70
66190;DHT22;52992;52.084;5.412;2024-01-30T01:06:48;11.50;66.80
66190;DHT22;52992;52.084;5.412;2024-01-30T01:09:15;11.50;66.70
66190;DHT22;52992;52.084;5.412;2024-01-30T01:11:43;11.50;66.70
66190;DHT22;52992;52.084;5.412;2024-01-30T01:14:09;11.50;66.90
66190;DHT22;52992;52.084;5.412;2024-01-30T01:16:36;11.50;66.90
66190;DHT22;52992;52.084;5.412;2024-01-30T01:19:04;11.40;66.90
66190;DHT22;52992;52.084;5.412;2024-01-30T01:21:31;11.50;67.10
66190;DHT22;52992;52.084;5.412;2024-01-30T01:23:58;11.50;67.00
66190;DHT22;52992;52.084;5.412;2024-01-30T01:26:26;11.40;66.90
66190;DHT22;52992;52.084;5.412;2024-01-30T01:28:53;11.40;67.00
66190;DHT22;52992;52.084;5.412;2024-01-30T01:31:20;11.40;67.10
66190;DHT22;52992;52.084;5.412;2024-01-30T01:33:51;11.40;67.20
66190;DHT22;52992;52.084;5.412;2024-01-30T01:36:18;11.30;67.90
66190;DHT22;52992;52.084;5.412;2024-01-30T01:38:45;11.30;67.80
66190;DHT22;52992;52.084;5.412;2024-01-30T01:41:12;11.30;68.40
66190;DHT22;52992;52.084;5.412;2024-01-30T01:43:39;11.30;67.60
66190;DHT22;52992;52.084;5.412;2024-01-30T01:46:06;11.40;67.50
66190;DHT22;52992;52.084;5.412;2024-01-30T01:48:34;11.40;67.40
66190;DHT22;52992;52.084;5.412;2024-01-30T01:51:01;11.30;67.50
66190;DHT22;52992;52.084;5.412;2024-01-30T01:53:28;11.40;67.30
66190;DHT22;52992;52.084;5.412;2024-01-30T01:55:55;11.40;67.30
66190;DHT22;52992;52.084;5.412;2024-01-30T01:58:25;11.30;67.30
66190;DHT22;52992;52.084;5.412;2024-01-30T02:00:56;11.30;67.50
66190;DHT22;52992;52.084;5.412;2024-01-30T02:03:24;11.30;67.50
66190;DHT22;52992;52.084;5.412;2024-01-30T02:05:51;11.40;67.50
66190;DHT22;52992;52.084;5.412;2024-01-30T02:08:19;11.40;67.40
66190;DHT22;52992;52.084;5.412;2024-01-30T02:10:46;11.40;67.40
66190;DHT22;52992;52.084;5.412;2024-01-30T02:13:13;11.40;67.20
66190;DHT22;52992;52.084;5.412;2024-01-30T02:15:40;11.40;67.30
66190;DHT22;52992;52.084;5.412;2024-01-30T02:18:07;11.30;67.50
66190;DHT22;52992;52.084;5.412;2024-01-30T02:20:35;11.30;67.60
66190;DHT22;52992;52.084;5.412;2024-01-30T02:23:04;11.40;67.40
66190;DHT22;52992;52.084;5.412;2024-01-30T02:25:40;11.40;67.40
66190;DHT22;52992;52.084;5.412;2024-01-30T02:28:13;11.40;67.20
66190;DHT22;52992;52.084;5.412;2024-01-30T02:30:42;11.40;67.00
66190;DHT22;52992;52.084;5.412;2024-01-30T02:33:09;11.40;66.90
66190;DHT22;52992;52.084;5.412;2024-01-30T02:35:36;11.40;66.90
66190;DHT22;52992;52.084;5.412;2024-01-30T02:38:03;11.40;66.70
66190;DHT22;52992;52.084;5.412;2024-01-30T02:40:31;11.40;66.60
66190;DHT22;52992;52.084;5.412;2024-01-30T02:43:02;11.40;66.60
66190;DHT22;52992;52.084;5.412;2024-01-30T02:45:29;11.40;66.40
66190;DHT22;52992;52.084;5.412;2024-01-30T02:47:56;11.50;66.50
66190;DHT22;52992;52.084;5.412;2024-01-30T02:50:23;11.40;66.40
66190;DHT22;52992;52.084;5.412;2024-01-30T02:52:50;11.40;66.40
66190;DHT22;52992;52.084;5.412;2024-01-30T02:55:17;11.50;66.40
66190;DHT22;52992;52.084;5.412;2024-01-30T02:57:45;11.40;66.20
66190;DHT22;52992;52.084;5.412;2024-01-30T03:00:12;11.40;66.30
66190;DHT22;52992;52.084;5.412;2024-01-30T03:02:39;11.40;66.40
66190;DHT22;52992;52.084;5.412;2024-01-30T03:05:08;11.40;66.70
66190;DHT22;52992;52.084;5.412;2024-01-30T03:07:35;11.30;66.70
66190;DHT22;52992;52.084;5.412;2024-01-30T03:10:02;11.40;66.70
66190;DHT22;52992;52.084;5.412;2024-01-30T03:12:29;11.40;66.30
66190;DHT22;52992;52.084;5.412;2024-01-30T03:14:56;11.40;66.20
66190;DHT22;52992;52.084;5.412;2024-01-30T03:17:23;11.40;66.00
66190;DHT22;52992;52.084;5.412;2024-01-30T03:19:51;11.40;66.00
66190;DHT22;52992;52.084;5.412;2024-01-30T03:22:18;11.40;66.00
66190;DHT22;52992;52.084;5.412;2024-01-30T03:24:45;11.40;66.20
66190;DHT22;52992;52.084;5.412;2024-01-30T03:27:12;11.40;66.10
66190;DHT22;52992;52.084;5.412;2024-01-30T03:29:38;11.50;66.10
66190;DHT22;52992;52.084;5.412;2024-01-30T03:32:05;11.50;65.80
66190;DHT22;52992;52.084;5.412;2024-01-30T03:34:32;11.60;65.50
66190;DHT22;52992;52.084;5.412;2024-01-30T03:36:59;11.60;65.40
66190;DHT22;52992;52.084;5.412;2024-01-30T03:39:26;11.60;65.30
66190;DHT22;52992;52.084;5.412;2024-01-30T03:41:53;11.50;65.30
66190;DHT22;52992;52.084;5.412;2024-01-30T03:44:21;11.60;65.30
66190;DHT22;52992;52.084;5.412;2024-01-30T03:46:48;11.60;65.30
66190;DHT22;52992;52.084;5.412;2024-01-30T03:49:15;11.60;65.40
66190;DHT22;52992;52.084;5.412;2024-01-30T03:51:42;11.60;65.20
66190;DHT22;52992;52.084;5.412;2024-01-30T03:54:09;11.60;65.30
66190;DHT22;52992;52.084;5.412;2024-01-30T03:56:36;11.50;65.50
66190;DHT22;52992;52.084;5.412;2024-01-30T03:59:03;11.50;65.50
66190;DHT22;52992;52.084;5.412;2024-01-30T04:01:30;11.60;65.40
66190;DHT22;52992;52.084;5.412;2024-01-30T04:03:57;11.50;65.60
66190;DHT22;52992;52.084;5.412;2024-01-30T04:06:24;11.60;65.50
66190;DHT22;52992;52.084;5.412;2024-01-30T04:08:51;11.60;65.30
66190;DHT22;52992;52.084;5.412;2024-01-30T04:11:18;11.70;65.30
66190;DHT22;52992;52.084;5.412;2024-01-30T04:13:46;11.70;65.20
66190;DHT22;52992;52.084;5.412;2024-01-30T04:16:22;11.70;65.00
66190;DHT22;52992;52.084;5.412;2024-01-30T04:18:50;11.60;64.90
66190;DHT22;52992;52.084;5.412;2024-01-30T04:21:18;11.70;65.00
66190;DHT22;52992;52.084;5.412;2024-01-30T04:23:44;11.70;65.00
66190;DHT22;52992;52.084;5.412;2024-01-30T04:26:11;11.70;65.00
66190;DHT22;52992;52.084;5.412;2024-01-30T04:28:40;11.70;65.00
66190;DHT22;52992;52.084;5.412;2024-01-30T04:31:08;11.60;65.00
66190;DHT22;52992;52.084;5.412;2024-01-30T04:33:36;11.60;65.00
66190;DHT22;52992;52.084;5.412;2024-01-30T04:36:03;11.60;65.20
66190;DHT22;52992;52.084;5.412;2024-01-30T04:38:31;11.70;65.20
66190;DHT22;52992;52.084;5.412;2024-01-30T04:40:58;11.60;65.10
66190;DHT22;52992;52.084;5.412;2024-01-30T04:43:25;11.60;65.20
66190;DHT22;52992;52.084;5.412;2024-01-30T04:45:53;11.60;65.10
66190;DHT22;52992;52.084;5.412;2024-01-30T04:48:20;11.70;65.10
66190;DHT22;52992;52.084;5.412;2024-01-30T04:50:47;11.70;64.80
66190;DHT22;52992;52.084;5.412;2024-01-30T04:53:14;11.70;65.00
66190;DHT22;52992;52.084;5.412;2024-01-30T04:55:41;11.70;65.10
66190;DHT22;52992;52.084;5.412;2024-01-30T04:58:07;11.70;65.00
66190;DHT22;52992;52.084;5.412;2024-01-30T05:00:34;11.80;64.90
66190;DHT22;52992;52.084;5.412;2024-01-30T05:03:02;11.80;64.60
66190;DHT22;52992;52.084;5.412;2024-01-30T05:05:28;11.80;64.40
66190;DHT22;52992;52.084;5.412;2024-01-30T05:07:55;11.80;64.30
66190;DHT22;52992;52.084;5.412;2024-01-30T05:10:22;11.80;64.30
66190;DHT22;52992;52.084;5.412;2024-01-30T05:12:49;11.80;64.40
66190;DHT22;52992;52.084;5.412;2024-01-30T05:15:16;11.90;64.50
66190;DHT22;52992;52.084;5.412;2024-01-30T05:17:43;11.90;65.00
66190;DHT22;52992;52.084;5.412;2024-01-30T05:20:11;11.90;64.40
66190;DHT22;52992;52.084;5.412;2024-01-30T05:22:38;11.90;64.50
66190;DHT22;52992;52.084;5.412;2024-01-30T05:25:12;11.90;64.40
66190;DHT22;52992;52.084;5.412;2024-01-30T05:27:39;11.90;64.40
66190;DHT22;52992;52.084;5.412;2024-01-30T05:30:07;11.90;64.40
66190;DHT22;52992;52.084;5.412;2024-01-30T05:32:34;11.90;64.40
66190;DHT22;52992;52.084;5.412;2024-01-30T05:35:01;11.90;64.50
66190;DHT22;52992;52.084;5.412;2024-01-30T05:37:28;11.90;64.50
66190;DHT22;52992;52.084;5.412;2024-01-30T05:39:56;11.90;64.40
66190;DHT22;52992;52.084;5.412;2024-01-30T05:42:25;11.90;64.50
66190;DHT22;52992;52.084;5.412;2024-01-30T05:44:52;11.90;64.50
66190;DHT22;52992;52.084;5.412;2024-01-30T05:47:19;11.90;64.70
66190;DHT22;52992;52.084;5.412;2024-01-30T05:49:46;11.90;64.70
66190;DHT22;52992;52.084;5.412;2024-01-30T05:52:13;11.90;64.50
66190;DHT22;52992;52.084;5.412;2024-01-30T05:54:40;11.90;64.40
66190;DHT22;52992;52.084;5.412;2024-01-30T05:57:07;11.90;64.80
66190;DHT22;52992;52.084;5.412;2024-01-30T05:59:33;11.90;64.80
66190;DHT22;52992;52.084;5.412;2024-01-30T06:02:07;12.00;64.50
66190;DHT22;52992;52.084;5.412;2024-01-30T06:04:34;12.10;64.70
66190;DHT22;52992;52.084;5.412;2024-01-30T06:07:01;12.00;64.40
66190;DHT22;52992;52.084;5.412;2024-01-30T06:09:29;12.00;64.40
66190;DHT22;52992;52.084;5.412;2024-01-30T06:11:56;12.00;64.40
66190;DHT22;52992;52.084;5.412;2024-01-30T06:14:23;12.10;64.50
66190;DHT22;52992;52.084;5.412;2024-01-30T06:16:50;12.10;64.30
66190;DHT22;52992;52.084;5.412;2024-01-30T06:19:17;12.10;64.20
66190;DHT22;52992;52.084;5.412;2024-01-30T06:21:44;12.10;64.20
66190;DHT22;52992;52.084;5.412;2024-01-30T06:24:12;12.20;64.20
66190;DHT22;52992;52.084;5.412;2024-01-30T06:26:38;12.20;64.10
66190;DHT22;52992;52.084;5.412;2024-01-30T06:29:06;12.10;64.30
66190;DHT22;52992;52.084;5.412;2024-01-30T06:31:40;12.20;64.40
66190;DHT22;52992;52.084;5.412;2024-01-30T06:34:09;12.10;64.40
66190;DHT22;52992;52.084;5.412;2024-01-30T06:36:36;12.20;64.20
66190;DHT22;52992;52.084;5.412;2024-01-30T06:39:03;12.20;64.10
66190;DHT22;52992;52.084;5.412;2024-01-30T06:41:30;12.20;64.30
66190;DHT22;52992;52.084;5.412;2024-01-30T06:43:57;12.20;64.30
66190;DHT22;52992;52.084;5.412;2024-01-30T06:46:24;12.20;64.10
66190;DHT22;52992;52.084;5.412;2024-01-30T06:48:51;12.20;64.10
66190;DHT22;52992;52.084;5.412;2024-01-30T06:51:18;12.20;64.20
66190;DHT22;52992;52.084;5.412;2024-01-30T06:53:45;12.20;64.40
66190;DHT22;52992;52.084;5.412;2024-01-30T06:56:12;12.20;64.40
66190;DHT22;52992;52.084;5.412;2024-01-30T06:58:39;12.20;64.40
66190;DHT22;52992;52.084;5.412;2024-01-30T07:01:06;12.30;64.50
66190;DHT22;52992;52.084;5.412;2024-01-30T07:03:33;12.30;64.50
66190;DHT22;52992;52.084;5.412;2024-01-30T07:06:00;12.30;64.50
66190;DHT22;52992;52.084;5.412;2024-01-30T07:08:27;12.30;64.50
66190;DHT22;52992;52.084;5.412;2024-01-30T07:10:54;12.30;64.50
66190;DHT22;52992;52.084;5.412;2024-01-30T07:13:27;12.30;64.50
66190;DHT22;52992;52.084;5.412;2024-01-30T07:15:55;12.40;64.40
66190;DHT22;52992;52.084;5.412;2024-01-30T07:18:22;12.40;64.30
66190;DHT22;52992;52.084;5.412;2024-01-30T07:20:49;12.40;64.20
66190;DHT22;52992;52.084;5.412;2024-01-30T07:23:17;12.50;64.40
66190;DHT22;52992;52.084;5.412;2024-01-30T07:25:44;12.50;64.30
66190;DHT22;52992;52.084;5.412;2024-01-30T07:28:15;12.50;64.30
66190;DHT22;52992;52.084;5.412;2024-01-30T07:30:45;12.50;64.20
66190;DHT22;52992;52.084;5.412;2024-01-30T07:33:12;12.60;64.20
66190;DHT22;52992;52.084;5.412;2024-01-30T07:35:40;12.60;64.00
66190;DHT22;52992;52.084;5.412;2024-01-30T07:38:07;12.60;64.00
66190;DHT22;52992;52.084;5.412;2024-01-30T07:40:34;12.60;64.10
66190;DHT22;52992;52.084;5.412;2024-01-30T07:43:01;12.50;64.30
66190;DHT22;52992;52.084;5.412;2024-01-30T07:45:30;12.50;64.40
66190;DHT22;52992;52.084;5.412;2024-01-30T07:47:59;12.50;64.40
66190;DHT22;52992;52.084;5.412;2024-01-30T07:50:27;12.60;64.50
66190;DHT22;52992;52.084;5.412;2024-01-30T07:52:56;12.60;64.40
66190;DHT22;52992;52.084;5.412;2024-01-30T07:55:23;12.70;64.30
66190;DHT22;52992;52.084;5.412;2024-01-30T07:57:55;12.70;64.20
66190;DHT22;52992;52.084;5.412;2024-01-30T08:00:22;12.80;64.10
66190;DHT22;52992;52.084;5.412;2024-01-30T08:02:49;12.80;64.00
66190;DHT22;52992;52.084;5.412;2024-01-30T08:05:17;12.80;64.00
66190;DHT22;52992;52.084;5.412;2024-01-30T08:07:44;12.90;64.10
66190;DHT22;52992;52.084;5.412;2024-01-30T08:10:12;12.90;64.20
66190;DHT22;52992;52.084;5.412;2024-01-30T08:12:41;12.90;64.20
66190;DHT22;52992;52.084;5.412;2024-01-30T08:15:08;13.00;64.20
66190;DHT22;52992;52.084;5.412;2024-01-30T08:17:35;13.00;64.20
66190;DHT22;52992;52.084;5.412;2024-01-30T08:20:02;13.00;64.20
66190;DHT22;52992;52.084;5.412;2024-01-30T08:22:31;13.00;64.20
66190;DHT22;52992;52.084;5.412;2024-01-30T08:24:58;13.10;64.20
66190;DHT22;52992;52.084;5.412;2024-01-30T08:27:25;13.20;64.30
66190;DHT22;52992;52.084;5.412;2024-01-30T08:29:52;13.20;64.20
66190;DHT22;52992;52.084;5.412;2024-01-30T08:32:19;13.30;64.30
66190;DHT22;52992;52.084;5.412;2024-01-30T08:34:46;13.30;64.30
66190;DHT22;52992;52.084;5.412;2024-01-30T08:37:13;13.30;64.40
66190;DHT22;52992;52.084;5.412;2024-01-30T08:39:43;13.40;64.40
66190;DHT22;52992;52.084;5.412;2024-01-30T08:42:11;13.40;64.50
66190;DHT22;52992;52.084;5.412;2024-01-30T08:44:38;13.40;64.60
66190;DHT22;52992;52.084;5.412;2024-01-30T08:47:05;13.50;64.70
66190;DHT22;52992;52.084;5.412;2024-01-30T08:49:32;13.60;64.80
66190;DHT22;52992;52.084;5.412;2024-01-30T08:52:00;13.60;64.70
66190;DHT22;52992;52.084;5.412;2024-01-30T08:54:27;13.70;64.80
66190;DHT22;52992;52.084;5.412;2024-01-30T08:56:53;13.80;64.70
66190;DHT22;52992;52.084;5.412;2024-01-30T08:59:22;13.80;64.90
66190;DHT22;52992;52.084;5.412;2024-01-30T09:01:49;13.80;65.00
66190;DHT22;52992;52.084;5.412;2024-01-30T09:04:32;13.90;65.20
66190;DHT22;52992;52.084;5.412;2024-01-30T09:07:00;13.90;65.30
66190;DHT22;52992;52.084;5.412;2024-01-30T09:09:27;14.00;65.20
66190;DHT22;52992;52.084;5.412;2024-01-30T09:11:54;14.00;65.20
66190;DHT22;52992;52.084;5.412;2024-01-30T09:14:21;14.10;65.30
66190;DHT22;52992;52.084;5.412;2024-01-30T09:16:48;14.10;65.30
66190;DHT22;52992;52.084;5.412;2024-01-30T09:19:15;14.20;65.30
66190;DHT22;52992;52.084;5.412;2024-01-30T09:21:43;14.30;65.20
66190;DHT22;52992;52.084;5.412;2024-01-30T09:24:10;14.40;64.80
66190;DHT22;52992;52.084;5.412;2024-01-30T09:26:37;14.50;64.50
66190;DHT22;52992;52.084;5.412;2024-01-30T09:29:04;14.50;65.50
66190;DHT22;52992;52.084;5.412;2024-01-30T09:31:31;14.40;64.80
66190;DHT22;52992;52.084;5.412;2024-01-30T09:33:58;14.40;65.30
66190;DHT22;52992;52.084;5.412;2024-01-30T09:36:25;14.40;65.40
66190;DHT22;52992;52.084;5.412;2024-01-30T09:38:52;14.50;65.40
66190;DHT22;52992;52.084;5.412;2024-01-30T09:41:20;14.50;65.50
66190;DHT22;52992;52.084;5.412;2024-01-30T09:43:48;14.40;65.30
66190;DHT22;52992;52.084;5.412;2024-01-30T09:46:17;14.40;65.50
66190;DHT22;52992;52.084;5.412;2024-01-30T09:48:48;14.40;65.60
66190;DHT22;52992;52.084;5.412;2024-01-30T09:51:17;14.40;65.50
66190;DHT22;52992;52.084;5.412;2024-01-30T09:53:44;14.40;65.50
66190;DHT22;52992;52.084;5.412;2024-01-30T09:56:12;14.40;65.50
66190;DHT22;52992;52.084;5.412;2024-01-30T09:58:39;14.40;65.50
66190;DHT22;52992;52.084;5.412;2024-01-30T10:01:06;14.40;65.50
66190;DHT22;52992;52.084;5.412;2024-01-30T10:03:33;14.40;65.40
66190;DHT22;52992;52.084;5.412;2024-01-30T10:06:01;14.40;65.60
66190;DHT22;52992;52.084;5.412;2024-01-30T10:08:29;14.50;65.60
66190;DHT22;52992;52.084;5.412;2024-01-30T10:10:56;14.50;66.00
66190;DHT22;52992;52.084;5.412;2024-01-30T10:13:25;14.60;65.00
66190;DHT22;52992;52.084;5.412;2024-01-30T10:15:53;14.60;65.00
66190;DHT22;52992;52.084;5.412;2024-01-30T10:18:24;14.60;64.80
66190;DHT22;52992;52.084;5.412;2024-01-30T10:20:51;14.60;65.00
66190;DHT22;52992;52.084;5.412;2024-01-30T10:23:18;14.70;64.70
66190;DHT22;52992;52.084;5.412;2024-01-30T10:25:46;14.70;64.80
66190;DHT22;52992;52.084;5.412;2024-01-30T10:28:14;14.80;64.30
66190;DHT22;52992;52.084;5.412;2024-01-30T10:30:41;14.90;64.00
66190;DHT22;52992;52.084;5.412;2024-01-30T10:33:08;15.20;63.30
66190;DHT22;52992;52.084;5.412;2024-01-30T10:35:35;15.30;62.70
66190;DHT22;52992;52.084;5.412;2024-01-30T10:38:03;15.40;62.30
66190;DHT22;52992;52.084;5.412;2024-01-30T10:40:33;15.50;62.20
66190;DHT22;52992;52.084;5.412;2024-01-30T10:43:02;15.60;61.60
66190;DHT22;52992;52.084;5.412;2024-01-30T10:45:31;15.50;61.70
66190;DHT22;52992;52.084;5.412;2024-01-30T10:48:00;15.50;62.00
66190;DHT22;52992;52.084;5.412;2024-01-30T10:50:29;15.40;62.20
66190;DHT22;52992;52.084;5.412;2024-01-30T10:52:58;15.40;62.40
66190;DHT22;52992;52.084;5.412;2024-01-30T10:55:27;15.40;62.60
66190;DHT22;52992;52.084;5.412;2024-01-30T10:57:55;15.30;62.60
66190;DHT22;52992;52.084;5.412;2024-01-30T11:00:23;15.10;63.00
66190;DHT22;52992;52.084;5.412;2024-01-30T11:02:50;15.10;63.20
66190;DHT22;52992;52.084;5.412;2024-01-30T11:05:25;15.10;63.40
66190;DHT22;52992;52.084;5.412;2024-01-30T11:08:10;15.00;63.50
66190;DHT22;52992;52.084;5.412;2024-01-30T11:10:47;15.00;63.80
66190;DHT22;52992;52.084;5.412;2024-01-30T11:13:15;15.00;63.50
66190;DHT22;52992;52.084;5.412;2024-01-30T11:15:42;15.20;62.90
66190;DHT22;52992;52.084;5.412;2024-01-30T11:18:09;15.30;62.60
66190;DHT22;52992;52.084;5.412;2024-01-30T11:20:36;15.40;62.00
66190;DHT22;52992;52.084;5.412;2024-01-30T11:23:03;15.50;61.60
66190;DHT22;52992;52.084;5.412;2024-01-30T11:25:33;15.40;61.40
66190;DHT22;52992;52.084;5.412;2024-01-30T11:28:00;15.30;61.80
66190;DHT22;52992;52.084;5.412;2024-01-30T11:30:29;15.20;61.60
66190;DHT22;52992;52.084;5.412;2024-01-30T11:33:02;15.10;62.20
66190;DHT22;52992;52.084;5.412;2024-01-30T11:35:39;15.10;62.20
66190;DHT22;52992;52.084;5.412;2024-01-30T11:38:09;15.00;62.10
66190;DHT22;52992;52.084;5.412;2024-01-30T11:40:37;14.90;61.80
66190;DHT22;52992;52.084;5.412;2024-01-30T11:43:06;15.00;61.50
66190;DHT22;52992;52.084;5.412;2024-01-30T11:45:35;15.00;60.90
66190;DHT22;52992;52.084;5.412;2024-01-30T11:48:02;15.10;60.50
66190;DHT22;52992;52.084;5.412;2024-01-30T11:50:34;15.20;59.90
66190;DHT22;52992;52.084;5.412;2024-01-30T11:53:02;15.30;59.60
66190;DHT22;52992;52.084;5.412;2024-01-30T11:55:29;15.40;59.10
66190;DHT22;52992;52.084;5.412;2024-01-30T11:58:00;15.40;58.40
66190;DHT22;52992;52.084;5.412;2024-01-30T12:00:28;15.30;57.90
66190;DHT22;52992;52.084;5.412;2024-01-30T12:02:57;15.30;58.40
66190;DHT22;52992;52.084;5.412;2024-01-30T12:05:27;15.20;57.80
66190;DHT22;52992;52.084;5.412;2024-01-30T12:07:55;15.20;58.10
66190;DHT22;52992;52.084;5.412;2024-01-30T12:10:25;15.20;58.20
66190;DHT22;52992;52.084;5.412;2024-01-30T12:12:53;15.30;58.40
66190;DHT22;52992;52.084;5.412;2024-01-30T12:15:22;15.40;57.60
66190;DHT22;52992;52.084;5.412;2024-01-30T12:17:49;15.30;57.50
66190;DHT22;52992;52.084;5.412;2024-01-30T12:20:20;15.10;57.20
66190;DHT22;52992;52.084;5.412;2024-01-30T12:22:49;14.80;58.10
66190;DHT22;52992;52.084;5.412;2024-01-30T12:25:18;14.70;58.00
66190;DHT22;52992;52.084;5.412;2024-01-30T12:27:48;14.70;57.60
66190;DHT22;52992;52.084;5.412;2024-01-30T12:30:20;14.50;57.70
66190;DHT22;52992;52.084;5.412;2024-01-30T12:32:50;14.30;58.40
66190;DHT22;52992;52.084;5.412;2024-01-30T12:35:19;14.10;58.50
66190;DHT22;52992;52.084;5.412;2024-01-30T12:37:49;14.00;58.80
66190;DHT22;52992;52.084;5.412;2024-01-30T12:40:16;14.00;59.00
66190;DHT22;52992;52.084;5.412;2024-01-30T12:42:46;13.90;59.10
66190;DHT22;52992;52.084;5.412;2024-01-30T12:45:16;13.80;59.60
66190;DHT22;52992;52.084;5.412;2024-01-30T12:47:47;13.80;59.60
66190;DHT22;52992;52.084;5.412;2024-01-30T12:50:14;13.80;59.70
66190;DHT22;52992;52.084;5.412;2024-01-30T12:52:43;13.70;59.50
66190;DHT22;52992;52.084;5.412;2024-01-30T12:55:13;13.70;59.70
66190;DHT22;52992;52.084;5.412;2024-01-30T12:57:40;13.60;59.90
66190;DHT22;52992;52.084;5.412;2024-01-30T13:00:08;13.60;59.80
66190;DHT22;52992;52.084;5.412;2024-01-30T13:02:35;13.60;59.70
66190;DHT22;52992;52.084;5.412;2024-01-30T13:05:04;13.50;59.60
66190;DHT22;52992;52.084;5.412;2024-01-30T13:07:31;13.60;59.70
66190;DHT22;52992;52.084;5.412;2024-01-30T13:09:58;13.70;59.60
66190;DHT22;52992;52.084;5.412;2024-01-30T13:12:30;13.70;59.20
66190;DHT22;52992;52.084;5.412;2024-01-30T13:14:59;13.70;58.70
66190;DHT22;52992;52.084;5.412;2024-01-30T13:17:31;13.70;58.70
66190;DHT22;52992;52.084;5.412;2024-01-30T13:19:58;13.70;58.50
66190;DHT22;52992;52.084;5.412;2024-01-30T13:22:36;13.70;58.80
66190;DHT22;52992;52.084;5.412;2024-01-30T13:25:05;13.80;58.50
66190;DHT22;52992;52.084;5.412;2024-01-30T13:27:34;13.90;58.60
66190;DHT22;52992;52.084;5.412;2024-01-30T13:30:00;13.90;58.60
66190;DHT22;52992;52.084;5.412;2024-01-30T13:32:27;13.90;58.60
66190;DHT22;52992;52.084;5.412;2024-01-30T13:34:54;13.70;58.70
66190;DHT22;52992;52.084;5.412;2024-01-30T13:37:22;13.70;59.40
66190;DHT22;52992;52.084;5.412;2024-01-30T13:39:50;13.70;59.60
66190;DHT22;52992;52.084;5.412;2024-01-30T13:42:17;13.70;59.60
66190;DHT22;52992;52.084;5.412;2024-01-30T13:44:44;13.70;59.70
66190;DHT22;52992;52.084;5.412;2024-01-30T13:47:11;13.60;59.70
66190;DHT22;52992;52.084;5.412;2024-01-30T13:49:38;13.50;60.10
66190;DHT22;52992;52.084;5.412;2024-01-30T13:52:05;13.40;61.40
66190;DHT22;52992;52.084;5.412;2024-01-30T13:54:32;13.40;61.00
66190;DHT22;52992;52.084;5.412;2024-01-30T13:56:59;13.40;61.10
66190;DHT22;52992;52.084;5.412;2024-01-30T13:59:26;13.40;61.00
66190;DHT22;52992;52.084;5.412;2024-01-30T14:01:53;13.50;61.10
66190;DHT22;52992;52.084;5.412;2024-01-30T14:04:21;13.50;61.20
66190;DHT22;52992;52.084;5.412;2024-01-30T14:06:48;13.50;61.00
66190;DHT22;52992;52.084;5.412;2024-01-30T14:09:26;13.50;61.00
66190;DHT22;52992;52.084;5.412;2024-01-30T14:11:53;13.50;61.00
66190;DHT22;52992;52.084;5.412;2024-01-30T14:14:20;13.50;61.10
66190;DHT22;52992;52.084;5.412;2024-01-30T14:16:47;13.40;61.20
66190;DHT22;52992;52.084;5.412;2024-01-30T14:19:14;13.40;61.30
66190;DHT22;52992;52.084;5.412;2024-01-30T14:21:40;13.30;61.30
66190;DHT22;52992;52.084;5.412;2024-01-30T14:24:10;13.30;61.50
66190;DHT22;52992;52.084;5.412;2024-01-30T14:26:37;13.30;61.60
66190;DHT22;52992;52.084;5.412;2024-01-30T14:29:04;13.30;61.60
66190;DHT22;52992;52.084;5.412;2024-01-30T14:31:31;13.40;61.50
66190;DHT22;52992;52.084;5.412;2024-01-30T14:33:58;13.40;61.20
66190;DHT22;52992;52.084;5.412;2024-01-30T14:36:26;13.30;61.30
66190;DHT22;52992;52.084;5.412;2024-01-30T14:38:55;13.30;61.60
66190;DHT22;52992;52.084;5.412;2024-01-30T14:41:22;13.20;61.80
66190;DHT22;52992;52.084;5.412;2024-01-30T14:43:49;13.10;62.30
66190;DHT22;52992;52.084;5.412;2024-01-30T14:46:17;13.10;62.80
66190;DHT22;52992;52.084;5.412;2024-01-30T14:48:44;12.90;63.40
66190;DHT22;52992;52.084;5.412;2024-01-30T14:51:11;12.90;63.90
66190;DHT22;52992;52.084;5.412;2024-01-30T14:53:38;12.90;64.10
66190;DHT22;52992;52.084;5.412;2024-01-30T14:56:05;12.90;64.30
66190;DHT22;52992;52.084;5.412;2024-01-30T14:58:33;12.80;64.50
66190;DHT22;52992;52.084;5.412;2024-01-30T15:01:00;12.80;65.00
66190;DHT22;52992;52.084;5.412;2024-01-30T15:03:28;12.80;65.30
66190;DHT22;52992;52.084;5.412;2024-01-30T15:05:56;12.70;65.50
66190;DHT22;52992;52.084;5.412;2024-01-30T15:08:23;12.60;65.90
66190;DHT22;52992;52.084;5.412;2024-01-30T15:10:50;12.60;66.20
66190;DHT22;52992;52.084;5.412;2024-01-30T15:13:17;12.50;66.40
66190;DHT22;52992;52.084;5.412;2024-01-30T15:15:44;12.50;66.60
66190;DHT22;52992;52.084;5.412;2024-01-30T15:18:11;12.60;66.60
66190;DHT22;52992;52.084;5.412;2024-01-30T15:20:39;12.50;66.60
66190;DHT22;52992;52.084;5.412;2024-01-30T15:23:05;12.60;66.60
66190;DHT22;52992;52.084;5.412;2024-01-30T15:25:32;12.50;66.90
66190;DHT22;52992;52.084;5.412;2024-01-30T15:28:00;12.40;67.20
66190;DHT22;52992;52.084;5.412;2024-01-30T15:30:27;12.40;67.40
66190;DHT22;52992;52.084;5.412;2024-01-30T15:32:54;12.40;67.50